TRA2M EHRD-LOWI
Flight info
| Callsign | TRA2M |
|---|---|
| Flight time | N/A |
| Altitude | 35000 |
| Route | WOODY N872 NIK M624 BUB DCT LIRSU DCT KRH DCT BATUB M738 MADEB MADEB1B |
| Aircraft | B738/M-SDE2E3FGHIJ1P2RWXY/LB1 |
Departure
| Time | 2026-04-30 14:49 |
|---|---|
| Airport | Rotterdam The Hague Airport (EHRD) |
Arrival
| Time | N/A |
|---|---|
| Airport | Innsbruck Airport (LOWI) |
| Time | Latitude | Longitude | Altitude | Speed | Heading |
|---|---|---|---|---|---|
| 2026-04-30 14:09 | 51.95111 | 4.43487 | 1 ft | 0 kts | 327° |
| 2026-04-30 14:45 | 51.95122 | 4.43475 | 0 ft | 5 kts | 328° |
| 2026-04-30 14:45 | 51.95157 | 4.43483 | 0 ft | 6 kts | 26° |
| 2026-04-30 14:46 | 51.95217 | 4.43464 | 0 ft | 11 kts | 329° |
| 2026-04-30 14:46 | 51.95232 | 4.43375 | 0 ft | 9 kts | 248° |
| 2026-04-30 14:46 | 51.95197 | 4.43289 | 0 ft | 9 kts | 236° |
| 2026-04-30 14:46 | 51.95175 | 4.43233 | 0 ft | 9 kts | 239° |
| 2026-04-30 14:47 | 51.95138 | 4.43119 | 0 ft | 8 kts | 245° |
| 2026-04-30 14:47 | 51.95113 | 4.43034 | 0 ft | 8 kts | 249° |
| 2026-04-30 14:47 | 51.95125 | 4.42946 | 1 ft | 9 kts | 307° |
| 2026-04-30 14:47 | 51.95178 | 4.42879 | 0 ft | 11 kts | 327° |
| 2026-04-30 14:48 | 51.95241 | 4.42902 | 1 ft | 11 kts | 57° |
| 2026-04-30 14:48 | 51.95255 | 4.42938 | 1 ft | 0 kts | 56° |
| 2026-04-30 14:48 | 51.95256 | 4.42938 | 1 ft | 0 kts | 56° |
| 2026-04-30 14:49 | 51.95290 | 4.43026 | 0 ft | 34 kts | 58° |
| 2026-04-30 14:49 | 51.95551 | 4.43681 | -1 ft | 102 kts | 57° |
| 2026-04-30 14:49 | 51.96039 | 4.44875 | 68 ft | 148 kts | 59° |
| 2026-04-30 14:49 | 51.96629 | 4.46354 | 637 ft | 161 kts | 61° |
| 2026-04-30 14:50 | 51.97744 | 4.49554 | 1760 ft | 165 kts | 67° |
| 2026-04-30 14:50 | 51.98295 | 4.51207 | 2147 ft | 168 kts | 68° |
| 2026-04-30 14:51 | 51.99409 | 4.54601 | 2959 ft | 172 kts | 69° |
| 2026-04-30 14:51 | 51.99940 | 4.56321 | 2969 ft | 170 kts | 70° |
| 2026-04-30 14:51 | 52.00365 | 4.60056 | 3014 ft | 182 kts | 99° |
| 2026-04-30 14:52 | 51.99864 | 4.62003 | 2990 ft | 197 kts | 133° |
| 2026-04-30 14:52 | 51.97508 | 4.64095 | 2983 ft | 191 kts | 148° |
| 2026-04-30 14:52 | 51.96273 | 4.65121 | 3025 ft | 210 kts | 149° |
| 2026-04-30 14:53 | 51.93279 | 4.66858 | 2993 ft | 249 kts | 180° |
| 2026-04-30 14:53 | 51.91621 | 4.65892 | 2987 ft | 265 kts | 211° |
| 2026-04-30 14:54 | 51.89312 | 4.61045 | 3006 ft | 277 kts | 231° |
| 2026-04-30 14:54 | 51.87005 | 4.56091 | 3099 ft | 270 kts | 208° |
| 2026-04-30 14:55 | 51.83660 | 4.54135 | 4818 ft | 252 kts | 188° |
| 2026-04-30 14:55 | 51.81950 | 4.53448 | 5215 ft | 255 kts | 188° |
| 2026-04-30 14:55 | 51.78525 | 4.52090 | 5307 ft | 255 kts | 188° |
| 2026-04-30 14:56 | 51.75074 | 4.50507 | 5473 ft | 269 kts | 204° |
| 2026-04-30 14:56 | 51.72286 | 4.46225 | 7117 ft | 280 kts | 222° |
| 2026-04-30 14:57 | 51.70961 | 4.43896 | 7855 ft | 283 kts | 222° |
| 2026-04-30 14:57 | 51.68079 | 4.39541 | 9213 ft | 283 kts | 198° |
| 2026-04-30 14:58 | 51.64276 | 4.38571 | 10595 ft | 282 kts | 178° |
| 2026-04-30 14:58 | 51.62234 | 4.38431 | 10763 ft | 306 kts | 178° |
| 2026-04-30 14:58 | 51.57693 | 4.38124 | 11143 ft | 345 kts | 179° |
| 2026-04-30 14:59 | 51.52818 | 4.37710 | 12341 ft | 355 kts | 179° |
| 2026-04-30 15:00 | 51.45340 | 4.37031 | 14268 ft | 367 kts | 180° |
| 2026-04-30 15:00 | 51.41038 | 4.36577 | 15325 ft | 374 kts | 185° |
| 2026-04-30 15:01 | 51.36162 | 4.33347 | 16723 ft | 385 kts | 203° |
| 2026-04-30 15:01 | 51.33737 | 4.31472 | 17315 ft | 389 kts | 202° |
| 2026-04-30 15:01 | 51.28799 | 4.27754 | 18557 ft | 396 kts | 202° |
| 2026-04-30 15:02 | 51.26222 | 4.26268 | 19062 ft | 394 kts | 186° |
| 2026-04-30 15:02 | 51.23523 | 4.26464 | 19567 ft | 390 kts | 162° |
| 2026-04-30 15:03 | 51.17199 | 4.34302 | 21167 ft | 392 kts | 126° |
| 2026-04-30 15:03 | 51.13955 | 4.41244 | 22239 ft | 396 kts | 125° |
| 2026-04-30 15:04 | 51.10633 | 4.48387 | 23047 ft | 407 kts | 126° |
| 2026-04-30 15:04 | 51.05456 | 4.59323 | 24436 ft | 413 kts | 126° |
| 2026-04-30 15:05 | 51.00228 | 4.70241 | 25649 ft | 419 kts | 126° |
| 2026-04-30 15:06 | 50.96659 | 4.77662 | 26280 ft | 426 kts | 126° |
| 2026-04-30 15:06 | 50.93042 | 4.85160 | 27116 ft | 428 kts | 126° |
| 2026-04-30 15:07 | 50.89405 | 4.92681 | 27775 ft | 432 kts | 126° |
| 2026-04-30 15:07 | 50.85717 | 5.00284 | 28376 ft | 437 kts | 126° |
| 2026-04-30 15:08 | 50.81985 | 5.07957 | 28965 ft | 441 kts | 126° |
| 2026-04-30 15:08 | 50.76346 | 5.19503 | 29980 ft | 443 kts | 126° |
| 2026-04-30 15:09 | 50.72568 | 5.27211 | 30637 ft | 443 kts | 126° |
| 2026-04-30 15:09 | 50.68811 | 5.34854 | 31360 ft | 439 kts | 126° |
| 2026-04-30 15:10 | 50.65061 | 5.42462 | 31981 ft | 439 kts | 126° |
| 2026-04-30 15:11 | 50.57591 | 5.57549 | 33332 ft | 436 kts | 126° |
| 2026-04-30 15:11 | 50.53869 | 5.65033 | 34022 ft | 433 kts | 126° |
| 2026-04-30 15:12 | 50.48303 | 5.76187 | 34787 ft | 433 kts | 126° |
| 2026-04-30 15:13 | 50.44575 | 5.83632 | 35264 ft | 433 kts | 126° |
| 2026-04-30 15:14 | 50.31467 | 6.09636 | 35308 ft | 431 kts | 126° |
| 2026-04-30 15:17 | 50.14601 | 6.42724 | 35292 ft | 434 kts | 126° |
| 2026-04-30 15:19 | 49.99489 | 6.72019 | 35300 ft | 435 kts | 126° |